Temp: 13.4°C   Baro: 1022.3mb
  Wind: 0.9mph   Dir: E (91°)
  Rain: 0.0mm (0.0mm/hr)
  Sun: 0W/m2  Humidity: 78%

Historic data

Bath Spa Weather Station Historical Data
Daily Summary for May 22, 2024 Units:  English    Metric   Both
Daily Weekly Monthly Yearly Custom
  High: Low: Average:
Temperature: 58.8 °F 53.2 °F 55.4 °F
Dew Point: 55.8 °F 51.4 °F 52.8 °F
Humidity: 95% 83% 91%
Wind Speed: 10.6mph 0.9mph 5.4mph
Wind Gust: 19mph - -
Wind- - West
Pressure: 29.87 in 29.77 in -
Precipitation: 0.30 in    
Historical Graphs
 
 
Tabular Data for May 22, 2024
Time Temperature Dew Point Pressure Wind Wind Speed Wind Gust Humidity Rainfall Rate (Hourly) solar
00:09 55.2 °F 52.9 °F 29.82 in West 2.1 mph 6 mph 92% 0.06 in 0 W/m2
00:14 55.1 °F 52.8 °F 29.82 in West 3.4 mph 6 mph 92% 0.06 in 0 W/m2
00:19 55 °F 52.7 °F 29.81 in West 3.5 mph 6 mph 92% 0.06 in 0 W/m2
00:24 55 °F 52.7 °F 29.81 in WSW 2.6 mph 6 mph 92% 0.06 in 0 W/m2
00:29 55 °F 52.7 °F 29.81 in WSW 3.2 mph 5 mph 92% 0.06 in 0 W/m2
00:34 54.9 °F 52.6 °F 29.81 in WSW 3.2 mph 6 mph 92% 0.06 in 0 W/m2
00:39 54.9 °F 52.5 °F 29.81 in WSW 2.8 mph 5 mph 92% 0.06 in 0 W/m2
00:44 54.9 °F 52.5 °F 29.81 in WSW 2.1 mph 5 mph 92% 0.06 in 0 W/m2
00:49 54.9 °F 52.5 °F 29.81 in West 2.1 mph 3 mph 92% 0.06 in 0 W/m2
00:54 54.7 °F 52.3 °F 29.80 in West 2.1 mph 5 mph 92% 0.06 in 0 W/m2
00:59 54.4 °F 52.1 °F 29.80 in WSW 2.6 mph 4 mph 92% 0.06 in 0 W/m2
01:04 54.3 °F 52 °F 29.80 in WSW 2 mph 4 mph 92% 0.06 in 0 W/m2
01:09 54.1 °F 52.2 °F 29.80 in WSW 2.8 mph 5 mph 93% 0.06 in 0 W/m2
01:14 54 °F 51.9 °F 29.80 in WSW 2.1 mph 5 mph 92.8% 0.06 in 0 W/m2
01:19 54 °F 52 °F 29.80 in WSW 1.6 mph 4 mph 93% 0.05 in 0 W/m2
01:24 53.8 °F 51.8 °F 29.80 in WSW 0.9 mph 3 mph 93% 0.04 in 0 W/m2
01:29 53.9 °F 51.9 °F 29.80 in WSW 1.9 mph 5 mph 93% 0.05 in 0 W/m2
01:34 54 °F 52 °F 29.80 in West 3.4 mph 6 mph 93% 0.04 in 0 W/m2
01:39 54 °F 52 °F 29.80 in West 2.6 mph 6 mph 93% 0.03 in 0 W/m2
01:44 54 °F 52 °F 29.79 in West 2.9 mph 9 mph 93% 0.03 in 0 W/m2
01:49 54.1 °F 52.1 °F 29.79 in West 5.3 mph 10 mph 93% 0.03 in 0 W/m2
01:54 54.1 °F 52.2 °F 29.79 in WNW 4.5 mph 8 mph 93% 0.02 in 0 W/m2
01:59 54.1 °F 52.2 °F 29.79 in West 4.6 mph 11 mph 93% 0.02 in 0 W/m2
02:04 54.1 °F 52.2 °F 29.79 in West 6 mph 9 mph 93% 0.02 in 0 W/m2
02:09 54.1 °F 52.2 °F 29.79 in West 5.7 mph 9 mph 93% 0.02 in 0 W/m2
02:14 54.1 °F 52.2 °F 29.79 in WNW 4.9 mph 11 mph 93% 0.02 in 0 W/m2
02:19 54.1 °F 52.2 °F 29.78 in WNW 4.9 mph 9 mph 93% 0.02 in 0 W/m2
02:24 54.1 °F 52.2 °F 29.78 in West 4.6 mph 7 mph 93% 0.02 in 0 W/m2
02:29 54.1 °F 52.2 °F 29.78 in West 4.5 mph 10 mph 93% 0.02 in 0 W/m2
02:34 54 °F 52 °F 29.78 in WNW 5.2 mph 11 mph 93% 0.02 in 0 W/m2
02:39 53.9 °F 51.9 °F 29.78 in West 6.8 mph 11 mph 93% 0.02 in 0 W/m2
02:44 54 °F 52.1 °F 29.78 in West 4.2 mph 8 mph 93.2% 0.02 in 0 W/m2
02:49 54 °F 52 °F 29.78 in West 4.1 mph 9 mph 93% 0.02 in 0 W/m2
02:54 53.9 °F 52 °F 29.78 in West 4.6 mph 9 mph 93.2% 0.02 in 0 W/m2
02:59 53.8 °F 52.2 °F 29.78 in West 4.4 mph 8 mph 94% 0.02 in 0 W/m2
03:04 53.8 °F 52.2 °F 29.78 in West 5.4 mph 9 mph 94% 0.01 in 0 W/m2
03:09 53.8 °F 52.2 °F 29.78 in West 4 mph 6 mph 94% 0.01 in 0 W/m2
03:14 53.8 °F 52.2 °F 29.78 in West 3.1 mph 7 mph 94% 0.01 in 0 W/m2
03:19 53.8 °F 52.2 °F 29.78 in West 2.6 mph 6 mph 94% 0.01 in 0 W/m2
03:24 53.7 °F 52.1 °F 29.78 in West 4.5 mph 7 mph 94% 0.02 in 0 W/m2
03:29 53.6 °F 52 °F 29.78 in West 2.7 mph 8 mph 94% 0.01 in 0 W/m2
03:34 53.6 °F 52 °F 29.78 in West 3.4 mph 7 mph 94% 0.01 in 0 W/m2
03:39 53.6 °F 52 °F 29.78 in West 4.4 mph 8 mph 94% 0.01 in 0 W/m2
03:44 53.6 °F 52 °F 29.78 in West 4.2 mph 6 mph 94% 0.01 in 0 W/m2
03:49 53.6 °F 52 °F 29.78 in West 3.3 mph 8 mph 94% 0.02 in 0 W/m2
03:54 53.5 °F 51.9 °F 29.78 in West 3.6 mph 7 mph 94% 0.02 in 0 W/m2
03:59 53.5 °F 51.9 °F 29.78 in West 3.9 mph 8 mph 94% 0.02 in 0 W/m2
04:04 53.4 °F 51.8 °F 29.78 in West 3.4 mph 7 mph 94% 0.03 in 0 W/m2
04:09 53.4 °F 51.8 °F 29.78 in West 3.5 mph 6 mph 94% 0.04 in 0 W/m2
04:14 53.4 °F 51.8 °F 29.78 in West 3.9 mph 8 mph 94% 0.06 in 0 W/m2
04:19 53.4 °F 51.8 °F 29.78 in WNW 6.3 mph 8 mph 94% 0.07 in 0 W/m2
04:24 53.4 °F 51.8 °F 29.77 in West 5.7 mph 10 mph 94% 0.07 in 0 W/m2
04:29 53.4 °F 51.8 °F 29.77 in West 6.3 mph 10 mph 94% 0.07 in 0 W/m2
04:34 53.4 °F 51.8 °F 29.77 in West 5.4 mph 8 mph 94% 0.07 in 0 W/m2
04:39 53.4 °F 51.8 °F 29.77 in WNW 3.6 mph 7 mph 94% 0.07 in 0 W/m2
04:44 53.4 °F 51.8 °F 29.77 in West 3.9 mph 8 mph 94% 0.08 in 0 W/m2
04:49 53.4 °F 51.8 °F 29.77 in West 4.1 mph 7 mph 94% 0.08 in 0 W/m2
04:54 53.4 °F 51.8 °F 29.77 in WSW 4.7 mph 8 mph 94% 0.07 in 0 W/m2
04:59 53.2 °F 51.6 °F 29.77 in West 5.4 mph 10 mph 94% 0.07 in 0 W/m2
05:04 53.2 °F 51.6 °F 29.77 in West 4.5 mph 8 mph 94% 0.07 in 0 W/m2
05:09 53.2 °F 51.6 °F 29.77 in West 3.6 mph 8 mph 94% 0.06 in 0 W/m2
05:14 53.2 °F 51.6 °F 29.77 in West 3.5 mph 7 mph 94% 0.06 in 0 W/m2
05:19 53.2 °F 51.6 °F 29.77 in West 5.6 mph 9 mph 94% 0.04 in 0 W/m2
05:24 53.2 °F 51.6 °F 29.77 in West 3.7 mph 9 mph 94% 0.03 in 0 W/m2
05:29 53.2 °F 51.6 °F 29.77 in West 5 mph 7 mph 94% 0.02 in 0 W/m2
05:34 53.2 °F 51.6 °F 29.77 in West 3.8 mph 7 mph 94% 0.02 in 0 W/m2
05:39 53.2 °F 51.6 °F 29.77 in West 3.4 mph 6 mph 94% 0.02 in 0 W/m2
05:44 53.2 °F 51.6 °F 29.77 in West 3.7 mph 7 mph 94% 0.02 in 0 W/m2
05:49 53.2 °F 51.6 °F 29.77 in WNW 2.8 mph 6 mph 94% 0.02 in 5 W/m2
05:54 53.3 °F 51.7 °F 29.77 in WNW 2.8 mph 5 mph 94% 0.02 in 5 W/m2
05:59 53.2 °F 51.6 °F 29.77 in West 3.6 mph 7 mph 94% 0.02 in 5 W/m2
06:04 53.2 °F 51.6 °F 29.77 in West 5.3 mph 9 mph 94% 0.02 in 12 W/m2
06:09 53.3 °F 51.7 °F 29.77 in West 4.2 mph 9 mph 94% 0.02 in 16 W/m2
06:14 53.2 °F 51.6 °F 29.77 in WNW 3 mph 9 mph 94% 0.02 in 19 W/m2
06:19 53.4 °F 51.8 °F 29.77 in West 4.8 mph 7 mph 94% 0.01 in 23 W/m2
06:24 53.3 °F 51.7 °F 29.77 in West 4.8 mph 6 mph 94% 0.01 in 25 W/m2
06:29 53.4 °F 51.8 °F 29.77 in West 4.4 mph 8 mph 94.2% 0.01 in 28 W/m2
06:34 53.4 °F 51.9 °F 29.77 in West 3.7 mph 8 mph 94.4% 0.01 in 35 W/m2
06:39 53.4 °F 51.9 °F 29.77 in West 3 mph 8 mph 94.4% 0.01 in 42 W/m2
06:44 53.4 °F 51.9 °F 29.77 in West 2.5 mph 5 mph 94.4% 0.01 in 51 W/m2
06:49 53.4 °F 51.8 °F 29.77 in West 4.8 mph 9 mph 94.2% 0.01 in 63 W/m2
06:54 53.4 °F 51.8 °F 29.77 in West 3.9 mph 9 mph 94% 0.00 in 65 W/m2
06:59 53.6 °F 52 °F 29.77 in West 4.4 mph 8 mph 94% 0.00 in 62 W/m2
07:04 53.6 °F 52.1 °F 29.77 in West 4.1 mph 8 mph 94.2% 0.00 in 86 W/m2
07:09 53.8 °F 52.2 °F 29.77 in West 3 mph 8 mph 94.3% 0.00 in 93 W/m2
07:14 53.8 °F 52.2 °F 29.77 in WNW 4.4 mph 8 mph 94.4% 0.00 in 98 W/m2
07:19 54 °F 52.5 °F 29.77 in West 3 mph 8 mph 95% 0.00 in 104 W/m2
07:24 54 °F 52.5 °F 29.77 in West 3.4 mph 7 mph 95% 0.00 in 104 W/m2
07:29 54 °F 52.5 °F 29.77 in West 4.7 mph 9 mph 95% 0.00 in 102 W/m2
07:34 54.1 °F 52.6 °F 29.77 in West 4.1 mph 7 mph 94.8% 0.00 in 102 W/m2
07:39 54.1 °F 52.5 °F 29.77 in West 3.9 mph 7 mph 94% 0.00 in 74 W/m2
07:44 54.2 °F 52.6 °F 29.77 in West 1.6 mph 5 mph 94% 0.00 in 46 W/m2
07:49 54.3 °F 52.7 °F 29.77 in West 2.1 mph 4 mph 94% 0.00 in 54 W/m2
07:54 54.3 °F 52.7 °F 29.77 in West 3.3 mph 6 mph 94.2% 0.00 in 67 W/m2
07:59 54.3 °F 52.7 °F 29.77 in WSW 3.7 mph 6 mph 94% 0.00 in 65 W/m2
08:04 54.5 °F 53 °F 29.77 in West 3.4 mph 6 mph 94.8% 0.00 in 74 W/m2
08:09 54.7 °F 53.2 °F 29.77 in West 2.2 mph 5 mph 95% 0.00 in 69 W/m2
08:14 54.8 °F 53.2 °F 29.77 in West 3.2 mph 5 mph 94.4% 0.00 in 97 W/m2
08:19 54.9 °F 53.2 °F 29.77 in WNW 4.8 mph 8 mph 94% 0.00 in 123 W/m2
08:24 55 °F 53.4 °F 29.77 in WNW 4.8 mph 8 mph 94% 0.00 in 153 W/m2
08:29 55.1 °F 53.5 °F 29.77 in WNW 5.8 mph 11 mph 94% 0.00 in 171 W/m2
08:34 55.3 °F 53.8 °F 29.77 in West 3.2 mph 7 mph 95% 0.00 in 178 W/m2
08:39 55.4 °F 54 °F 29.77 in WNW 5.2 mph 10 mph 95% 0.00 in 174 W/m2
08:44 55.3 °F 53.8 °F 29.77 in West 4.7 mph 9 mph 94.2% 0.00 in 160 W/m2
08:49 55.4 °F 53.8 °F 29.77 in West 6 mph 10 mph 94% 0.00 in 178 W/m2
08:54 55.4 °F 53.8 °F 29.77 in WNW 6.4 mph 11 mph 94% 0.00 in 178 W/m2
08:59 55.4 °F 53.8 °F 29.78 in West 4.1 mph 10 mph 94% 0.00 in 174 W/m2
09:04 55.6 °F 54 °F 29.78 in WNW 4 mph 7 mph 94% 0.00 in 160 W/m2
09:09 55.6 °F 54 °F 29.78 in West 4.8 mph 10 mph 94% 0.01 in 158 W/m2
09:14 55.5 °F 53.9 °F 29.78 in WNW 5.1 mph 11 mph 94% 0.01 in 163 W/m2
09:19 55.4 °F 53.8 °F 29.78 in WNW 6.6 mph 12 mph 94% 0.01 in 172 W/m2
09:24 55.4 °F 53.8 °F 29.78 in West 6.5 mph 10 mph 94% 0.01 in 156 W/m2
09:29 55.6 °F 54 °F 29.78 in West 5.1 mph 10 mph 94% 0.01 in 151 W/m2
09:34 55.6 °F 54 °F 29.78 in WNW 6.6 mph 15 mph 94% 0.01 in 171 W/m2
09:39 55.4 °F 53.8 °F 29.78 in West 6.8 mph 11 mph 94% 0.01 in 178 W/m2
09:44 55.4 °F 53.8 °F 29.78 in West 6.2 mph 11 mph 94% 0.01 in 160 W/m2
09:49 55.3 °F 53.4 °F 29.78 in West 6 mph 13 mph 93.2% 0.02 in 160 W/m2
09:54 55.2 °F 53.4 °F 29.78 in West 6.8 mph 11 mph 93.6% 0.02 in 179 W/m2
09:59 55.2 °F 53.3 °F 29.78 in West 3.7 mph 9 mph 93.2% 0.02 in 178 W/m2
10:04 55.4 °F 53.4 °F 29.78 in West 4.8 mph 10 mph 93% 0.02 in 181 W/m2
10:09 55 °F 53.1 °F 29.78 in West 6.6 mph 12 mph 93% 0.02 in 186 W/m2
10:14 55 °F 53.1 °F 29.78 in West 4.6 mph 9 mph 93% 0.02 in 179 W/m2
10:19 55 °F 53.1 °F 29.78 in West 4.3 mph 9 mph 93% 0.02 in 178 W/m2
10:24 55.2 °F 53.2 °F 29.78 in WSW 4.4 mph 7 mph 93% 0.02 in 186 W/m2
10:29 55.2 °F 53.2 °F 29.78 in West 7.4 mph 11 mph 93% 0.03 in 192 W/m2
10:34 54.9 °F 52.9 °F 29.78 in West 6 mph 11 mph 93% 0.03 in 214 W/m2
10:39 54.9 °F 53 °F 29.78 in West 4.9 mph 9 mph 93% 0.03 in 216 W/m2
10:44 54.9 °F 53 °F 29.78 in WSW 5.8 mph 9 mph 93% 0.03 in 214 W/m2
10:49 55 °F 53.1 °F 29.78 in West 6 mph 11 mph 93% 0.03 in 197 W/m2
10:54 55 °F 53.1 °F 29.78 in West 5.4 mph 11 mph 93% 0.02 in 199 W/m2
10:59 55.2 °F 53.2 °F 29.78 in West 5.6 mph 11 mph 93% 0.03 in 204 W/m2
11:04 55.3 °F 53.3 °F 29.78 in West 8.8 mph 13 mph 93% 0.03 in 190 W/m2
11:09 55.3 °F 53.3 °F 29.78 in WSW 5.6 mph 10 mph 93% 0.02 in 151 W/m2
11:14 55.5 °F 53.5 °F 29.78 in West 7.2 mph 13 mph 93% 0.02 in 142 W/m2
11:19 55.5 °F 53.5 °F 29.78 in WSW 6.8 mph 11 mph 93% 0.02 in 130 W/m2
11:24 55.5 °F 53.5 °F 29.78 in West 5.1 mph 12 mph 93% 0.02 in 120 W/m2
11:29 55.5 °F 53.5 °F 29.78 in West 5.6 mph 10 mph 93% 0.02 in 74 W/m2
11:34 55.4 °F 53.4 °F 29.78 in West 6.2 mph 9 mph 93% 0.01 in 88 W/m2
11:39 55.2 °F 53.2 °F 29.78 in West 5.2 mph 9 mph 93% 0.01 in 148 W/m2
11:44 55.4 °F 53.4 °F 29.78 in West 5.7 mph 9 mph 93% 0.01 in 163 W/m2
11:49 55.3 °F 53.3 °F 29.78 in WSW 5.8 mph 12 mph 93% 0.01 in 179 W/m2
11:54 55.2 °F 53.2 °F 29.78 in West 6.4 mph 13 mph 93% 0.01 in 218 W/m2
11:59 55.2 °F 53.2 °F 29.78 in West 7.6 mph 15 mph 93% 0.01 in 151 W/m2
12:04 55.2 °F 53.1 °F 29.78 in WSW 6 mph 13 mph 92.6% 0.00 in 207 W/m2
12:09 55.4 °F 53.2 °F 29.78 in WSW 6.8 mph 13 mph 92.2% 0.00 in 200 W/m2
12:14 55.5 °F 53.5 °F 29.78 in West 8.2 mph 13 mph 93% 0.00 in 264 W/m2
12:19 55.7 °F 53.5 °F 29.78 in WSW 7 mph 12 mph 92.4% 0.00 in 269 W/m2
12:24 55.9 °F 53.5 °F 29.78 in WSW 5.4 mph 11 mph 92% 0.00 in 311 W/m2
12:29 56.1 °F 53.9 °F 29.78 in West 6.4 mph 12 mph 92.4% 0.00 in 308 W/m2
12:34 56.2 °F 53.9 °F 29.78 in West 3.8 mph 12 mph 92% 0.00 in 301 W/m2
12:39 56.2 °F 53.9 °F 29.78 in WSW 4.5 mph 12 mph 92% 0.00 in 327 W/m2
12:44 56.3 °F 54 °F 29.78 in West 7 mph 14 mph 92% 0.00 in 330 W/m2
12:49 56.7 °F 54.3 °F 29.78 in WSW 4.8 mph 9 mph 92% 0.00 in 272 W/m2
12:54 56.8 °F 54.5 °F 29.78 in WSW 6.7 mph 14 mph 92% 0.00 in 287 W/m2
12:59 56.8 °F 54.5 °F 29.78 in WSW 7.6 mph 14 mph 92% 0.00 in 297 W/m2
13:04 56.7 °F 54.3 °F 29.78 in West 8.4 mph 15 mph 92% 0.00 in 315 W/m2
13:09 56.7 °F 54.2 °F 29.78 in WSW 4.8 mph 15 mph 91% 0.00 in 362 W/m2
13:14 56.9 °F 54.4 °F 29.78 in WSW 7.2 mph 13 mph 91% 0.00 in 404 W/m2
13:19 57.3 °F 54.8 °F 29.78 in WSW 4.8 mph 14 mph 91% 0.00 in 392 W/m2
13:24 57.5 °F 54.9 °F 29.78 in West 5.6 mph 11 mph 90.8% 0.00 in 383 W/m2
13:29 57.7 °F 54.9 °F 29.78 in West 3.6 mph 10 mph 90.2% 0.00 in 385 W/m2
13:34 57.6 °F 54.7 °F 29.78 in WSW 10.4 mph 17 mph 90% 0.00 in 348 W/m2
13:39 57.5 °F 54.6 °F 29.78 in West 6.7 mph 15 mph 90% 0.00 in 353 W/m2
13:44 57.6 °F 54.6 °F 29.78 in West 5.1 mph 12 mph 89.6% 0.00 in 336 W/m2
13:49 57.5 °F 54.2 °F 29.78 in WSW 7.6 mph 16 mph 89% 0.00 in 360 W/m2
13:54 57.8 °F 54.6 °F 29.77 in WSW 4.4 mph 12 mph 89% 0.00 in 346 W/m2
13:59 58.1 °F 54.8 °F 29.77 in WSW 8 mph 14 mph 89% 0.00 in 346 W/m2
14:04 58.3 °F 54.7 °F 29.77 in WSW 7 mph 14 mph 88% 0.00 in 362 W/m2
14:09 58.4 °F 54.6 °F 29.77 in West 7.5 mph 16 mph 87.2% 0.00 in 353 W/m2
14:14 58.5 °F 54.7 °F 29.77 in WSW 7.8 mph 16 mph 87% 0.00 in 357 W/m2
14:19 58.6 °F 54.5 °F 29.78 in WSW 7.2 mph 14 mph 86.2% 0.00 in 385 W/m2
14:24 58.6 °F 54.4 °F 29.77 in WSW 9.4 mph 16 mph 85.6% 0.00 in 346 W/m2
14:29 58.8 °F 54.3 °F 29.77 in West 8 mph 16 mph 85% 0.00 in 299 W/m2
14:34 58.5 °F 54 °F 29.78 in West 7.2 mph 14 mph 85% 0.00 in 264 W/m2
14:39 58.1 °F 53.9 °F 29.78 in West 5.8 mph 12 mph 86% 0.00 in 267 W/m2
14:44 57.7 °F 53.9 °F 29.78 in WNW 6.8 mph 16 mph 86.8% 0.00 in 221 W/m2
14:49 57.3 °F 53.5 °F 29.78 in West 8 mph 15 mph 87% 0.01 in 169 W/m2
14:54 56.9 °F 53.3 °F 29.78 in WSW 8.2 mph 15 mph 88% 0.01 in 165 W/m2
14:59 56.8 °F 53.2 °F 29.78 in West 5.3 mph 12 mph 88% 0.02 in 167 W/m2
15:04 56.8 °F 53.5 °F 29.78 in West 7.4 mph 12 mph 88.8% 0.03 in 155 W/m2
15:09 56.8 °F 53.5 °F 29.78 in West 5.8 mph 12 mph 89% 0.04 in 332 W/m2
15:14 57.1 °F 54.2 °F 29.77 in West 4.6 mph 10 mph 89.8% 0.04 in 394 W/m2
15:19 57.4 °F 54.5 °F 29.77 in West 6.4 mph 13 mph 90% 0.04 in 397 W/m2
15:24 57.6 °F 54.7 °F 29.77 in West 7.1 mph 14 mph 90% 0.04 in 380 W/m2
15:29 57.6 °F 54.7 °F 29.78 in West 8.4 mph 14 mph 90% 0.04 in 343 W/m2
15:34 57.5 °F 54.6 °F 29.78 in West 9.4 mph 17 mph 90% 0.04 in 274 W/m2
15:39 57.5 °F 54.6 °F 29.78 in West 7.9 mph 13 mph 90% 0.04 in 141 W/m2
15:44 57.1 °F 54.2 °F 29.78 in WSW 6.1 mph 16 mph 90% 0.04 in 109 W/m2
15:49 56.8 °F 54 °F 29.78 in WSW 6.2 mph 15 mph 90% 0.05 in 190 W/m2
15:54 57 °F 54.3 °F 29.78 in WSW 5.6 mph 12 mph 90.4% 0.04 in 427 W/m2
15:59 57.5 °F 55 °F 29.78 in West 6.4 mph 13 mph 91% 0.04 in 432 W/m2
16:04 57.6 °F 55 °F 29.78 in West 7 mph 15 mph 91% 0.02 in 327 W/m2
16:09 57.6 °F 55.1 °F 29.78 in WSW 6.6 mph 15 mph 91% 0.01 in 274 W/m2
16:14 57.6 °F 54.9 °F 29.78 in West 7.6 mph 13 mph 90.4% 0.01 in 443 W/m2
16:19 57.9 °F 55.1 °F 29.78 in West 9 mph 16 mph 90.5% 0.01 in 570 W/m2
16:24 58.3 °F 55.4 °F 29.78 in West 6.4 mph 15 mph 90% 0.01 in 570 W/m2
16:29 58.4 °F 55.6 °F 29.78 in West 7.1 mph 15 mph 90% 0.01 in 541 W/m2
16:34 58.6 °F 55.8 °F 29.78 in West 7.2 mph 14 mph 90% 0.01 in 439 W/m2
16:39 58.7 °F 55.8 °F 29.78 in West 5.9 mph 16 mph 89.8% 0.01 in 373 W/m2
16:44 58.8 °F 55.6 °F 29.78 in West 8.2 mph 15 mph 89% 0.01 in 341 W/m2
16:49 58.8 °F 55.6 °F 29.78 in West 10.6 mph 16 mph 89% 0.01 in 253 W/m2
16:54 58.6 °F 55 °F 29.79 in West 7.2 mph 18 mph 88% 0.00 in 214 W/m2
16:59 58.3 °F 54.5 °F 29.79 in WNW 8.8 mph 18 mph 87% 0.00 in 237 W/m2
17:04 57.9 °F 53.8 °F 29.79 in West 9.6 mph 15 mph 86% 0.00 in 206 W/m2
17:09 57.7 °F 53.3 °F 29.79 in West 5.8 mph 17 mph 85.2% 0.00 in 178 W/m2
17:14 57.7 °F 53.2 °F 29.79 in West 7.7 mph 15 mph 85% 0.00 in 197 W/m2
17:19 57.6 °F 53.1 °F 29.79 in West 6.6 mph 14 mph 85% 0.00 in 214 W/m2
17:24 57.5 °F 53 °F 29.80 in West 6 mph 14 mph 85% 0.00 in 183 W/m2
17:29 57.5 °F 53 °F 29.80 in WNW 4.9 mph 13 mph 85% 0.00 in 178 W/m2
17:34 57.4 °F 52.9 °F 29.80 in West 7 mph 13 mph 85% 0.00 in 142 W/m2
17:39 57.3 °F 52.8 °F 29.80 in West 6.6 mph 12 mph 85% 0.00 in 137 W/m2
17:44 57.3 °F 52.8 °F 29.80 in West 6.8 mph 13 mph 85% 0.00 in 176 W/m2
17:49 57.4 °F 52.9 °F 29.80 in West 5 mph 11 mph 85% 0.00 in 167 W/m2
17:54 57.4 °F 52.9 °F 29.80 in West 8.8 mph 13 mph 85% 0.00 in 176 W/m2
17:59 57.5 °F 53 °F 29.80 in West 6.6 mph 14 mph 85% 0.00 in 195 W/m2
18:04 57.6 °F 53.1 °F 29.80 in West 8.2 mph 14 mph 85% 0.00 in 171 W/m2
18:09 57.6 °F 53.1 °F 29.80 in West 5.7 mph 14 mph 85% 0.00 in 130 W/m2
18:14 57.6 °F 53.1 °F 29.80 in West 6.5 mph 12 mph 85% 0.00 in 127 W/m2
18:19 57.6 °F 53.1 °F 29.80 in West 6.3 mph 12 mph 85% 0.00 in 195 W/m2
18:24 57.7 °F 53.1 °F 29.80 in West 7.8 mph 13 mph 84.8% 0.00 in 185 W/m2
18:29 57.7 °F 53.1 °F 29.80 in West 6.9 mph 16 mph 84.6% 0.00 in 135 W/m2
18:34 57.7 °F 53.1 °F 29.80 in WSW 8.7 mph 15 mph 84.8% 0.00 in 178 W/m2
18:39 57.7 °F 53.2 °F 29.81 in West 6.4 mph 13 mph 85% 0.00 in 95 W/m2
18:44 57.6 °F 53.1 °F 29.81 in West 9.6 mph 19 mph 85% 0.00 in 100 W/m2
18:49 57.6 °F 52.8 °F 29.81 in West 5.4 mph 13 mph 84.2% 0.00 in 69 W/m2
18:54 57.4 °F 52.5 °F 29.81 in West 6.7 mph 16 mph 84% 0.00 in 74 W/m2
18:59 57.1 °F 52.2 °F 29.82 in West 8 mph 15 mph 83.4% 0.00 in 54 W/m2
19:04 57 °F 52 °F 29.82 in West 9.8 mph 14 mph 83% 0.00 in 42 W/m2
19:09 56.8 °F 51.8 °F 29.82 in WNW 5.6 mph 14 mph 83% 0.00 in 35 W/m2
19:14 56.8 °F 51.8 °F 29.82 in West 6.6 mph 11 mph 83% 0.00 in 30 W/m2
19:19 56.7 °F 51.6 °F 29.82 in West 6.6 mph 12 mph 83% 0.00 in 25 W/m2
19:24 56.7 °F 51.6 °F 29.83 in West 6 mph 13 mph 83% 0.00 in 25 W/m2
19:29 56.7 °F 51.6 °F 29.83 in West 4 mph 13 mph 83% 0.00 in 21 W/m2
19:34 56.6 °F 51.5 °F 29.83 in WSW 7.6 mph 11 mph 83% 0.00 in 16 W/m2
19:39 56.5 °F 51.4 °F 29.83 in West 5.6 mph 11 mph 83% 0.00 in 16 W/m2
19:44 56.5 °F 51.4 °F 29.83 in West 6.4 mph 12 mph 83% 0.00 in 14 W/m2
19:49 56.4 °F 51.4 °F 29.83 in West 6.1 mph 12 mph 83.2% 0.00 in 11 W/m2
19:54 56.3 °F 51.4 °F 29.83 in West 3.5 mph 8 mph 84% 0.00 in 12 W/m2
19:59 56.3 °F 51.6 °F 29.83 in West 3.4 mph 8 mph 84.4% 0.00 in 12 W/m2
20:04 56.3 °F 51.8 °F 29.83 in West 4.8 mph 14 mph 85% 0.00 in 12 W/m2
20:09 56.2 °F 51.7 °F 29.83 in WSW 4.7 mph 14 mph 85% 0.00 in 12 W/m2
20:14 56.1 °F 51.9 °F 29.83 in West 4.4 mph 10 mph 85.8% 0.00 in 12 W/m2
20:19 55.9 °F 51.8 °F 29.84 in WSW 5.9 mph 10 mph 86% 0.00 in 11 W/m2
20:24 55.9 °F 52 °F 29.84 in West 5.1 mph 14 mph 86.4% 0.00 in 9 W/m2
20:29 55.8 °F 52 °F 29.84 in West 6.4 mph 9 mph 87% 0.00 in 11 W/m2
20:34 55.8 °F 52 °F 29.84 in West 4.7 mph 9 mph 87% 0.00 in 7 W/m2
20:39 55.8 °F 52 °F 29.84 in West 4.1 mph 9 mph 87% 0.00 in 7 W/m2
20:44 55.8 °F 52 °F 29.84 in West 4.6 mph 8 mph 87% 0.00 in 7 W/m2
20:49 55.7 °F 52.1 °F 29.84 in West 4.6 mph 10 mph 87.6% 0.00 in 0 W/m2
20:54 55.6 °F 52.2 °F 29.85 in West 4.8 mph 8 mph 88% 0.00 in 0 W/m2
20:59 55.6 °F 52.2 °F 29.85 in West 5.7 mph 11 mph 88% 0.00 in 0 W/m2
21:04 55.5 °F 52.1 °F 29.85 in West 5.2 mph 10 mph 88% 0.00 in 0 W/m2
21:09 55.3 °F 51.9 °F 29.85 in West 4.2 mph 10 mph 88% 0.00 in 0 W/m2
21:14 55.2 °F 51.8 °F 29.85 in West 6.6 mph 11 mph 88% 0.00 in 0 W/m2
21:19 55 °F 51.6 °F 29.85 in West 5.4 mph 16 mph 88.2% 0.00 in 0 W/m2
21:24 55 °F 51.6 °F 29.85 in West 4.8 mph 9 mph 88.4% 0.00 in 0 W/m2
21:29 54.9 °F 51.6 °F 29.85 in West 7.6 mph 14 mph 89% 0.00 in 0 W/m2
21:34 54.9 °F 51.6 °F 29.86 in West 3.1 mph 11 mph 89% 0.00 in 0 W/m2
21:39 54.7 °F 51.4 °F 29.86 in West 7.6 mph 12 mph 89% 0.00 in 0 W/m2
21:44 54.7 °F 51.4 °F 29.86 in West 5.8 mph 12 mph 89% 0.00 in 0 W/m2
21:49 54.7 °F 51.4 °F 29.86 in West 6.3 mph 12 mph 89% 0.00 in 0 W/m2
21:54 54.7 °F 51.4 °F 29.86 in West 5.5 mph 12 mph 89% 0.00 in 0 W/m2
21:59 54.7 °F 51.6 °F 29.86 in West 4.9 mph 10 mph 89.4% 0.00 in 0 W/m2
22:04 54.7 °F 51.8 °F 29.86 in West 6.6 mph 11 mph 90% 0.00 in 0 W/m2
22:09 54.7 °F 51.8 °F 29.86 in West 6 mph 12 mph 90% 0.00 in 0 W/m2
22:14 54.7 °F 51.8 °F 29.86 in West 6 mph 10 mph 90% 0.00 in 0 W/m2
22:19 54.7 °F 51.8 °F 29.86 in West 6.5 mph 12 mph 90% 0.00 in 0 W/m2
22:24 54.7 °F 51.8 °F 29.86 in WNW 6.6 mph 12 mph 90% 0.00 in 0 W/m2
22:29 54.7 °F 51.8 °F 29.86 in WNW 6 mph 11 mph 90% 0.00 in 0 W/m2
22:34 54.7 °F 51.8 °F 29.86 in West 6.1 mph 12 mph 90% 0.00 in 0 W/m2
22:39 54.7 °F 51.8 °F 29.87 in West 7.6 mph 16 mph 90% 0.00 in 0 W/m2
22:44 54.7 °F 51.8 °F 29.87 in West 6.1 mph 14 mph 90% 0.00 in 0 W/m2
22:49 54.8 °F 51.9 °F 29.87 in WNW 5.3 mph 12 mph 90% 0.00 in 0 W/m2
22:54 54.9 °F 52 °F 29.87 in WSW 7.1 mph 14 mph 90% 0.00 in 0 W/m2
22:59 54.9 °F 52 °F 29.87 in West 6 mph 13 mph 90% 0.00 in 0 W/m2
23:04 54.9 °F 52 °F 29.87 in West 4.6 mph 11 mph 90% 0.00 in 0 W/m2
23:09 54.9 °F 52 °F 29.87 in West 6.4 mph 12 mph 90% 0.00 in 0 W/m2
23:14 54.7 °F 51.8 °F 29.87 in West 5.8 mph 15 mph 90% 0.00 in 0 W/m2
23:19 54.7 °F 51.8 °F 29.86 in WSW 6.4 mph 11 mph 90% 0.00 in 0 W/m2
23:24 54.7 °F 51.8 °F 29.86 in West 6.6 mph 11 mph 90% 0.00 in 0 W/m2
23:29 54.6 °F 51.7 °F 29.86 in West 5.1 mph 10 mph 90% 0.00 in 0 W/m2
23:34 54.4 °F 51.5 °F 29.86 in West 3.8 mph 9 mph 90% 0.00 in 0 W/m2
23:39 54.3 °F 51.4 °F 29.86 in West 4.1 mph 9 mph 90% 0.00 in 0 W/m2
23:44 54.2 °F 51.5 °F 29.87 in West 3.2 mph 8 mph 90.6% 0.00 in 0 W/m2
23:49 54.1 °F 51.6 °F 29.87 in WSW 4.2 mph 10 mph 91% 0.00 in 0 W/m2
23:54 54.1 °F 51.6 °F 29.87 in WSW 4.3 mph 10 mph 91% 0.00 in 0 W/m2
23:59 54.1 °F 51.6 °F 29.87 in West 6.4 mph 14 mph 91% 0.00 in 0 W/m2
Bath Spa Weather
Compliments of Weather Underground - 2 mb